Terminal Aerodrome Forecast
Issued by NWS

Home | Current Version | Previous Version | Text Only | Print | Product List | Glossary Off
Versions: 1 2 3 4 5 6 7 8 9 10 11 12 13 14 15 16 17 18

570
FTUS43 KABR 260656 AAA
TAFPIR
TAF AMD
KPIR 260656Z 2607/2706 31011KT P6SM BKN100
     FM261300 29011KT P6SM FEW250
     FM261500 29014G23KT P6SM FEW250
     FM270000 31010KT P6SM SCT200=

USA.gov is the U.S. government's official web portal to all federal, state and local government web resources and services.